Clarksville, Missouri
Current Conditions -  °F | °C
As of 5:35 AM on Friday 31 Oct 2014 (Local Time) from KPPQ Reporting Station
Overcast Overcast  
Wind Chill: 37°   Ceiling: 2800
Heat Index: 46°   Visibility: 10mi
Dew Point: 33°   Wind: 24mph
Humidity: 61%   Direction: 340°NNW
Pressure: 30.18"   Gusts: 35mph
Location:  39.37°N, 90.91°W
Report Text: KPPQ 311035Z AUTO 34021G30KT 10SM BKN028 OVC036 08/01 A3018 RMK AO2 T00770007
Loading
Personal Weather Stations






























Interactive Weather Map
Tropical Storm Tracking
New forecast layout! Learn more

10-Day Weather Forecast

Advertisements
Track Severe Weather on mobile